createdAt,value
2023-05-13T00:01:11.278Z,96422.09
2023-05-13T00:03:38.334Z,96420.06
2023-05-13T00:06:05.422Z,96414.50
2023-05-13T00:08:32.496Z,96408.59
2023-05-13T00:10:59.404Z,96386.44
2023-05-13T00:13:27.001Z,96404.88
2023-05-13T00:15:53.916Z,96405.47
2023-05-13T00:18:20.804Z,96381.47
2023-05-13T00:20:47.635Z,96378.22
2023-05-13T00:23:14.820Z,96369.56
2023-05-13T00:25:42.351Z,96374.19
2023-05-13T00:28:09.203Z,96396.50
2023-05-13T00:30:36.132Z,96380.69
2023-05-13T00:33:03.256Z,96392.03
2023-05-13T00:35:30.238Z,96387.84
2023-05-13T00:37:57.154Z,96394.81
2023-05-13T00:40:25.139Z,96390.16
2023-05-13T00:42:52.280Z,96369.84
2023-05-13T00:45:20.109Z,96389.06
2023-05-13T00:47:48.337Z,96375.59
2023-05-13T00:50:15.319Z,96372.19
2023-05-13T00:52:43.315Z,96381.31
2023-05-13T00:55:11.375Z,96387.97
2023-05-13T00:57:40.257Z,96393.56
2023-05-13T01:00:08.151Z,96390.94
2023-05-13T01:03:02.889Z,96395.75
2023-05-13T01:06:04.735Z,96348.44
2023-05-13T01:08:31.526Z,96399.91
2023-05-13T01:11:04.134Z,96404.41
2023-05-13T01:13:40.036Z,96399.91
2023-05-13T01:16:16.731Z,96390.00
2023-05-13T01:18:49.832Z,96406.59
2023-05-13T01:21:16.817Z,96413.56
2023-05-13T01:23:43.649Z,96375.72
2023-05-13T01:26:10.567Z,96404.41
2023-05-13T01:28:38.572Z,96400.22
2023-05-13T01:31:06.492Z,96413.09
2023-05-13T01:33:33.686Z,96416.06
2023-05-13T01:36:01.045Z,96401.63
2023-05-13T01:38:28.740Z,96398.97
2023-05-13T01:40:59.150Z,96425.03
2023-05-13T01:43:27.471Z,96364.41
2023-05-13T01:45:54.901Z,96375.53
2023-05-13T01:48:22.677Z,96422.09
2023-05-13T01:50:49.602Z,96423.78
2023-05-13T01:53:16.441Z,96388.59
2023-05-13T01:55:43.428Z,96414.66
2023-05-13T01:58:10.339Z,96425.19
2023-05-13T02:00:37.159Z,96424.09
2023-05-13T02:03:04.384Z,96400.09
2023-05-13T02:05:33.414Z,96432.31
2023-05-13T02:08:05.034Z,96402.06
2023-05-13T02:10:32.149Z,96406.91
2023-05-13T02:13:00.861Z,96424.41
2023-05-13T02:15:27.912Z,96370.28
2023-05-13T02:17:54.788Z,96430.47
2023-05-13T02:20:22.171Z,96417.13
2023-05-13T02:22:49.180Z,96404.41
2023-05-13T02:25:16.146Z,96424.41
2023-05-13T02:27:43.023Z,96424.09
2023-05-13T02:30:10.207Z,96417.44
2023-05-13T02:32:37.058Z,96414.78
2023-05-13T02:35:04.186Z,96415.56
2023-05-13T02:37:31.154Z,96397.13
2023-05-13T02:40:02.142Z,96414.47
2023-05-13T02:42:29.069Z,96422.38
2023-05-13T02:44:56.036Z,96385.34
2023-05-13T02:47:24.179Z,96416.66
2023-05-13T02:49:51.107Z,96407.97
2023-05-13T02:52:18.018Z,96402.56
2023-05-13T02:54:44.901Z,96412.94
2023-05-13T02:57:12.004Z,96395.72
2023-05-13T02:59:38.940Z,96400.84
2023-05-13T03:02:05.998Z,96423.00
2023-05-13T03:04:32.916Z,96424.25
2023-05-13T03:06:59.799Z,96397.00
2023-05-13T03:09:26.637Z,96364.84
2023-05-13T03:11:53.531Z,96417.75
2023-05-13T03:14:20.637Z,96391.72
2023-05-13T03:16:47.450Z,96418.50
2023-05-13T03:19:14.983Z,96390.63
2023-05-13T03:21:42.065Z,96400.06
2023-05-13T03:24:12.274Z,96393.09
2023-05-13T03:26:39.301Z,96422.41
2023-05-13T03:29:06.784Z,96400.69
2023-05-13T03:31:35.428Z,96399.13
2023-05-13T03:34:04.651Z,96420.38
2023-05-13T03:36:32.722Z,96395.72
2023-05-13T03:39:00.287Z,96385.94
2023-05-13T03:41:28.469Z,96408.91
2023-05-13T03:43:58.187Z,96399.88
2023-05-13T03:46:27.521Z,96434.66
2023-05-13T03:48:58.762Z,96408.44
2023-05-13T03:51:28.131Z,96361.28
2023-05-13T03:53:55.166Z,96416.19
2023-05-13T03:56:22.015Z,96403.81
2023-05-13T03:58:48.976Z,96438.38
2023-05-13T04:01:15.830Z,96412.47
2023-05-13T04:03:45.521Z,96444.41
2023-05-13T04:06:14.741Z,96435.09
2023-05-13T04:08:42.086Z,96432.31
2023-05-13T04:11:08.978Z,96419.31
2023-05-13T04:13:36.339Z,96431.53
2023-05-13T04:16:03.468Z,96430.16
2023-05-13T04:18:31.726Z,96433.09
2023-05-13T04:20:58.609Z,96414.34
2023-05-13T04:23:25.594Z,96443.94
2023-05-13T04:25:52.945Z,96397.25
2023-05-13T04:28:20.954Z,96418.69
2023-05-13T04:30:49.333Z,96438.19
2023-05-13T04:33:16.937Z,96447.34
2023-05-13T04:35:46.005Z,96446.25
2023-05-13T04:38:13.487Z,96424.25
2023-05-13T04:40:40.532Z,96438.19
2023-05-13T04:43:11.881Z,96457.13
2023-05-13T04:45:48.173Z,96454.47
2023-05-13T04:48:16.437Z,96435.41
2023-05-13T04:50:47.660Z,96420.66
2023-05-13T04:53:16.101Z,96438.50
2023-05-13T04:55:44.353Z,96427.34
2023-05-13T04:58:11.190Z,96450.91
2023-05-13T05:00:39.191Z,96428.75
2023-05-13T05:03:06.126Z,96472.94
2023-05-13T05:05:33.237Z,96467.34
2023-05-13T05:08:00.514Z,96454.00
2023-05-13T05:10:27.782Z,96398.81
2023-05-13T05:12:58.710Z,96481.59
2023-05-13T05:15:25.683Z,96476.13
2023-05-13T05:17:55.974Z,96450.38
2023-05-13T05:20:24.568Z,96474.72
2023-05-13T05:22:54.558Z,96483.13
2023-05-13T05:25:25.104Z,96477.34
2023-05-13T05:27:51.960Z,96481.06
2023-05-13T05:30:19.031Z,96475.22
2023-05-13T05:32:50.758Z,96469.13
2023-05-13T05:35:19.919Z,96453.47
2023-05-13T05:37:47.146Z,96483.66
2023-05-13T05:40:14.157Z,96482.44
2023-05-13T05:42:41.119Z,96484.09
2023-05-13T05:45:09.428Z,96494.19
2023-05-13T05:47:37.183Z,96503.91
2023-05-13T05:50:04.769Z,96504.69
2023-05-13T05:52:31.697Z,96473.94
2023-05-13T05:54:58.953Z,96490.97
2023-05-13T05:57:25.803Z,96502.06
2023-05-13T05:59:53.045Z,96479.53
2023-05-13T06:02:20.044Z,96482.84
2023-05-13T06:04:47.114Z,96509.94
2023-05-13T06:07:14.111Z,96506.78
2023-05-13T06:09:41.218Z,96503.56
2023-05-13T06:12:08.721Z,96488.78
2023-05-13T06:14:35.787Z,96516.34
2023-05-13T06:17:02.649Z,96497.16
2023-05-13T06:19:29.974Z,96479.13
2023-05-13T06:21:57.530Z,96494.06
2023-05-13T06:24:24.378Z,96507.25
2023-05-13T06:26:51.237Z,96497.16
2023-05-13T06:29:18.092Z,96493.31
2023-05-13T06:31:45.076Z,96511.13
2023-05-13T06:34:16.839Z,96472.03
2023-05-13T06:36:44.427Z,96494.34
2023-05-13T06:39:12.317Z,96483.09
2023-05-13T06:41:41.186Z,96481.63
2023-05-13T06:44:13.252Z,96503.19
2023-05-13T06:46:40.776Z,96498.03
2023-05-13T06:49:07.667Z,96505.03
2023-05-13T06:51:35.146Z,96480.81
2023-05-13T06:54:02.013Z,96476.78
2023-05-13T06:56:30.263Z,96506.13
2023-05-13T06:58:57.104Z,96477.41
2023-05-13T07:01:24.030Z,96494.72
2023-05-13T07:03:51.205Z,96481.16
2023-05-13T07:06:18.114Z,96508.75
2023-05-13T07:08:44.949Z,96495.16
2023-05-13T07:11:11.800Z,96502.00
2023-05-13T07:13:39.269Z,96504.78
2023-05-13T07:16:06.266Z,96459.78
2023-05-13T07:18:33.252Z,96490.47
2023-05-13T07:21:00.339Z,96513.88
2023-05-13T07:23:27.233Z,96485.97
2023-05-13T07:25:54.158Z,96495.88
2023-05-13T07:28:21.157Z,96482.44
2023-05-13T07:30:48.453Z,96495.63
2023-05-13T07:33:15.628Z,96473.94
2023-05-13T07:35:42.591Z,96512.47
2023-05-13T07:38:11.049Z,96512.91
2023-05-13T07:40:38.149Z,96502.59
2023-05-13T07:43:05.454Z,96510.81
2023-05-13T07:45:32.566Z,96473.00
2023-05-13T07:47:59.413Z,96485.41
2023-05-13T07:50:26.447Z,96498.47
2023-05-13T07:52:53.388Z,96505.69
2023-05-13T07:55:20.738Z,96488.38
2023-05-13T07:57:47.659Z,96494.53
2023-05-13T08:00:15.929Z,96516.72
2023-05-13T08:02:44.118Z,96484.41
2023-05-13T08:05:11.589Z,96503.09
2023-05-13T08:07:38.564Z,96522.25
2023-05-13T08:10:06.116Z,96495.38
2023-05-13T08:12:33.067Z,96507.06
2023-05-13T08:15:01.399Z,96522.28
2023-05-13T08:17:28.254Z,96526.19
2023-05-13T08:19:55.259Z,96521.34
2023-05-13T08:22:22.173Z,96513.88
2023-05-13T08:24:49.100Z,96534.97
2023-05-13T08:27:16.295Z,96527.13
2023-05-13T08:29:43.129Z,96509.50
2023-05-13T08:32:10.143Z,96540.53
2023-05-13T08:34:37.176Z,96543.25
2023-05-13T08:37:04.328Z,96534.84
2023-05-13T08:39:31.297Z,96517.56
2023-05-13T08:41:58.701Z,96507.69
2023-05-13T08:44:29.403Z,96514.94
2023-05-13T08:47:22.214Z,96512.97
2023-05-13T08:49:50.754Z,96543.56
2023-05-13T08:52:19.088Z,96511.44
2023-05-13T08:54:46.628Z,96532.19
2023-05-13T08:57:13.514Z,96540.66
2023-05-13T08:59:40.911Z,96545.63
2023-05-13T09:02:10.101Z,96528.66
2023-05-13T09:04:39.296Z,96521.94
2023-05-13T09:07:06.345Z,96521.13
2023-05-13T09:09:33.565Z,96547.88
2023-05-13T09:12:00.403Z,96528.13
2023-05-13T09:14:34.261Z,96546.09
2023-05-13T09:17:04.635Z,96549.38
2023-05-13T09:19:31.691Z,96535.50
2023-05-13T09:21:58.926Z,96528.84
2023-05-13T09:24:25.875Z,96523.97
2023-05-13T09:26:52.741Z,96494.34
2023-05-13T09:29:20.827Z,96538.81
2023-05-13T09:31:54.127Z,96533.81
2023-05-13T09:34:34.883Z,96540.97
2023-05-13T09:37:07.073Z,96517.03
2023-05-13T09:39:43.805Z,96503.09
2023-05-13T09:42:17.907Z,96534.91
2023-05-13T09:44:45.766Z,96522.06
2023-05-13T09:47:17.065Z,96529.41
2023-05-13T09:49:46.861Z,96492.78
2023-05-13T09:52:17.243Z,96552.59
2023-05-13T09:54:44.905Z,96545.56
2023-05-13T09:57:13.582Z,96552.34
2023-05-13T09:59:40.607Z,96522.34
2023-05-13T10:02:10.391Z,96556.78
2023-05-13T10:04:37.850Z,96509.28
2023-05-13T10:07:05.282Z,96540.53
2023-05-13T10:09:36.808Z,96553.91
2023-05-13T10:12:06.740Z,96499.63
2023-05-13T10:14:33.692Z,96535.50
2023-05-13T10:17:01.115Z,96534.00
2023-05-13T10:19:28.456Z,96522.59
2023-05-13T10:21:57.808Z,96548.34
2023-05-13T10:24:24.840Z,96529.69
2023-05-13T10:26:53.059Z,96520.38
2023-05-13T10:29:22.598Z,96538.97
2023-05-13T10:31:50.879Z,96475.00
2023-05-13T10:34:18.068Z,96549.63
2023-05-13T10:36:57.321Z,96562.09
2023-05-13T10:39:34.759Z,96557.50
2023-05-13T10:42:32.647Z,96556.66
2023-05-13T10:44:59.766Z,96527.16
2023-05-13T10:47:27.817Z,96518.78
2023-05-13T10:49:54.831Z,96554.09
2023-05-13T10:52:21.740Z,96534.22
2023-05-13T10:55:02.780Z,96563.69
2023-05-13T10:57:36.197Z,96541.81
2023-05-13T11:00:16.878Z,96534.13
2023-05-13T11:02:44.101Z,96546.59
2023-05-13T11:05:19.743Z,96527.31
2023-05-13T11:07:56.606Z,96528.31
2023-05-13T11:10:29.204Z,96560.41
2023-05-13T11:13:09.668Z,96569.13
2023-05-13T11:15:49.413Z,96575.06
2023-05-13T11:18:16.748Z,96574.16
2023-05-13T11:20:54.180Z,96557.81
2023-05-13T11:23:21.701Z,96545.03
2023-05-13T11:26:12.690Z,96574.66
2023-05-13T11:29:05.845Z,96565.69
2023-05-13T11:31:50.393Z,96571.53
2023-05-13T11:34:18.752Z,96546.66
2023-05-13T11:37:09.065Z,96565.59
2023-05-13T11:39:38.668Z,96566.06
2023-05-13T11:42:10.408Z,96530.66
2023-05-13T11:44:46.988Z,96549.38
2023-05-13T11:47:14.126Z,96546.13
2023-05-13T11:49:45.388Z,96568.00
2023-05-13T11:52:16.269Z,96567.06
2023-05-13T11:54:57.483Z,96564.13
2023-05-13T11:57:29.102Z,96552.28
2023-05-13T11:59:58.859Z,96572.09
2023-05-13T12:02:29.063Z,96548.03
2023-05-13T12:04:56.641Z,96581.31
2023-05-13T12:07:24.918Z,96575.00
2023-05-13T12:09:53.488Z,96569.38
2023-05-13T12:12:20.979Z,96552.44
2023-05-13T12:14:51.304Z,96553.88
2023-05-13T12:17:19.549Z,96542.78
2023-05-13T12:20:10.064Z,96567.72
2023-05-13T12:22:49.302Z,96572.53
2023-05-13T12:25:38.884Z,96573.91
2023-05-13T12:28:20.103Z,96580.25
2023-05-13T12:30:59.878Z,96564.03
2023-05-13T12:33:29.220Z,96584.91
2023-05-13T12:36:15.518Z,96590.44
2023-05-13T12:39:00.243Z,96587.34
2023-05-13T12:41:30.856Z,96576.94
2023-05-13T12:44:18.510Z,96583.94
2023-05-13T12:46:55.841Z,96572.13
2023-05-13T12:49:23.104Z,96550.09
2023-05-13T12:51:52.393Z,96580.94
2023-05-13T12:54:19.415Z,96554.72
2023-05-13T12:56:46.457Z,96547.31
2023-05-13T12:59:14.627Z,96566.56
2023-05-13T13:01:43.109Z,96559.50
2023-05-13T13:04:10.227Z,96541.72
2023-05-13T13:06:37.405Z,96555.97
2023-05-13T13:09:04.387Z,96577.19
2023-05-13T13:11:31.388Z,96540.38
2023-05-13T13:13:58.236Z,96575.31
2023-05-13T13:16:25.208Z,96551.22
2023-05-13T13:18:54.256Z,96547.31
2023-05-13T13:21:22.950Z,96540.47
2023-05-13T13:23:49.892Z,96542.34
2023-05-13T13:26:16.957Z,96540.88
2023-05-13T13:28:43.904Z,96550.00
2023-05-13T13:31:12.195Z,96565.47
2023-05-13T13:33:39.097Z,96565.72
2023-05-13T13:36:06.397Z,96546.16
2023-05-13T13:38:33.355Z,96538.81
2023-05-13T13:41:00.246Z,96550.31
2023-05-13T13:43:28.050Z,96547.88
2023-05-13T13:45:55.018Z,96544.78
2023-05-13T13:48:22.024Z,96536.03
2023-05-13T13:50:50.536Z,96552.69
2023-05-13T13:53:18.497Z,96569.91
2023-05-13T13:55:45.520Z,96555.53
2023-05-13T13:58:12.416Z,96553.53
2023-05-13T14:00:39.600Z,96516.44
2023-05-13T14:03:06.591Z,96551.31
2023-05-13T14:05:33.533Z,96552.72
2023-05-13T14:08:00.979Z,96545.19
2023-05-13T14:10:27.881Z,96552.44
2023-05-13T14:12:54.808Z,96550.84
2023-05-13T14:15:21.777Z,96543.34
2023-05-13T14:17:48.753Z,96520.28
2023-05-13T14:20:16.303Z,96540.22
2023-05-13T14:22:43.175Z,96534.69
2023-05-13T14:25:10.388Z,96537.78
2023-05-13T14:27:37.316Z,96545.16
2023-05-13T14:30:05.549Z,96562.50
2023-05-13T14:32:33.505Z,96554.91
2023-05-13T14:35:00.642Z,96564.19
2023-05-13T14:37:27.547Z,96546.34
2023-05-13T14:39:54.562Z,96562.13
2023-05-13T14:42:21.955Z,96535.59
2023-05-13T14:44:48.830Z,96559.59
2023-05-13T14:47:16.149Z,96536.81
2023-05-13T14:49:43.062Z,96542.16
2023-05-13T14:52:10.041Z,96554.25
2023-05-13T14:54:38.047Z,96523.88
2023-05-13T14:57:06.181Z,96519.38
2023-05-13T14:59:33.647Z,96540.72
2023-05-13T15:02:04.447Z,96549.75
2023-05-13T15:04:31.480Z,96553.75
2023-05-13T15:07:19.447Z,96544.44
2023-05-13T15:09:46.392Z,96553.19
2023-05-13T15:12:13.328Z,96542.03
2023-05-13T15:14:43.181Z,96529.66
2023-05-13T15:17:12.189Z,96549.66
2023-05-13T15:19:39.395Z,96534.09
2023-05-13T15:22:06.363Z,96537.63
2023-05-13T15:24:33.206Z,96551.31
2023-05-13T15:27:03.815Z,96531.44
2023-05-13T15:29:32.563Z,96532.44
2023-05-13T15:31:59.651Z,96541.28
2023-05-13T15:34:26.551Z,96537.81
2023-05-13T15:36:53.396Z,96500.59
2023-05-13T15:39:20.423Z,96528.78
2023-05-13T15:41:48.540Z,96510.22
2023-05-13T15:44:15.587Z,96524.59
2023-05-13T15:46:42.785Z,96523.38
2023-05-13T15:49:09.699Z,96487.47
2023-05-13T15:51:39.258Z,96526.81
2023-05-13T15:54:06.244Z,96509.47
2023-05-13T15:56:33.228Z,96524.72
2023-05-13T15:59:00.134Z,96502.59
2023-05-13T16:01:27.107Z,96505.31
2023-05-13T16:03:54.207Z,96499.31
2023-05-13T16:06:21.138Z,96500.59
2023-05-13T16:08:48.663Z,96502.38
2023-05-13T16:11:15.536Z,96519.41
2023-05-13T16:13:42.468Z,96494.44
2023-05-13T16:16:09.395Z,96493.38
2023-05-13T16:18:36.564Z,96495.19
2023-05-13T16:21:03.792Z,96465.91
2023-05-13T16:23:30.814Z,96485.03
2023-05-13T16:25:57.795Z,96492.00
2023-05-13T16:28:24.713Z,96477.78
2023-05-13T16:30:51.776Z,96498.81
2023-05-13T16:33:18.683Z,96488.84
2023-05-13T16:35:45.720Z,96462.34
2023-05-13T16:38:12.604Z,96496.81
2023-05-13T16:40:39.653Z,96472.09
2023-05-13T16:43:06.522Z,96484.00
2023-05-13T16:45:33.461Z,96489.00
2023-05-13T16:48:00.523Z,96490.69
2023-05-13T16:50:27.629Z,96480.94
2023-05-13T16:52:54.878Z,96496.50
2023-05-13T16:55:22.762Z,96490.41
2023-05-13T16:57:49.592Z,96490.34
2023-05-13T17:00:17.051Z,96494.28
2023-05-13T17:02:44.091Z,96503.09
2023-05-13T17:05:10.996Z,96491.41
2023-05-13T17:07:38.019Z,96476.06
2023-05-13T17:10:05.217Z,96467.56
2023-05-13T17:12:32.203Z,96471.84
2023-05-13T17:14:59.052Z,96482.06
2023-05-13T17:17:26.062Z,96469.38
2023-05-13T17:19:52.919Z,96451.34
2023-05-13T17:22:19.823Z,96453.44
2023-05-13T17:24:46.653Z,96463.59
2023-05-13T17:27:13.529Z,96489.22
2023-05-13T17:29:40.318Z,96482.00
2023-05-13T17:32:07.478Z,96461.25
2023-05-13T17:34:34.374Z,96483.13
2023-05-13T17:37:01.283Z,96487.09
2023-05-13T17:39:28.581Z,96489.06
2023-05-13T17:41:55.594Z,96462.91
2023-05-13T17:44:24.169Z,96488.38
2023-05-13T17:46:51.046Z,96459.91
2023-05-13T17:49:17.880Z,96450.31
2023-05-13T17:51:44.927Z,96481.69
2023-05-13T17:54:11.906Z,96482.97
2023-05-13T17:56:38.767Z,96484.13
2023-05-13T17:59:07.134Z,96474.28
2023-05-13T18:01:37.029Z,96475.91
2023-05-13T18:04:04.122Z,96492.47
2023-05-13T18:06:31.625Z,96465.75
2023-05-13T18:08:58.578Z,96443.84
2023-05-13T18:11:26.383Z,96471.00
2023-05-13T18:13:53.502Z,96464.34
2023-05-13T18:16:20.462Z,96475.97
2023-05-13T18:18:48.984Z,96484.28
2023-05-13T18:21:16.082Z,96487.81
2023-05-13T18:23:45.939Z,96476.16
2023-05-13T18:26:12.995Z,96477.75
2023-05-13T18:28:41.952Z,96483.28
2023-05-13T18:31:08.888Z,96474.53
2023-05-13T18:33:35.834Z,96492.84
2023-05-13T18:36:02.786Z,96448.88
2023-05-13T18:38:29.956Z,96472.94
2023-05-13T18:40:56.960Z,96493.28
2023-05-13T18:43:23.920Z,96459.88
2023-05-13T18:45:51.036Z,96437.31
2023-05-13T18:48:18.002Z,96496.97
2023-05-13T18:50:44.934Z,96476.34
2023-05-13T18:53:11.811Z,96454.91
2023-05-13T18:55:39.135Z,96485.00
2023-05-13T18:58:06.139Z,96482.84
2023-05-13T19:00:33.132Z,96494.97
2023-05-13T19:03:00.339Z,96480.91
2023-05-13T19:05:27.698Z,96479.03
2023-05-13T19:07:54.605Z,96489.53
2023-05-13T19:10:21.909Z,96508.75
2023-05-13T19:12:49.029Z,96507.91
2023-05-13T19:15:16.089Z,96501.09
2023-05-13T19:17:43.142Z,96487.47
2023-05-13T19:20:10.640Z,96526.16
2023-05-13T19:22:37.713Z,96524.72
2023-05-13T19:25:05.666Z,96530.81
2023-05-13T19:27:32.737Z,96517.94
2023-05-13T19:29:59.697Z,96519.81
2023-05-13T19:32:26.725Z,96497.44
2023-05-13T19:34:53.804Z,96515.16
2023-05-13T19:37:20.849Z,96502.91
2023-05-13T19:39:47.820Z,96515.94
2023-05-13T19:42:15.492Z,96531.94
2023-05-13T19:44:44.958Z,96508.88
2023-05-13T19:47:11.845Z,96495.56
2023-05-13T19:49:38.917Z,96488.94
2023-05-13T19:52:06.753Z,96514.34
2023-05-13T19:54:33.798Z,96505.19
2023-05-13T19:57:00.824Z,96528.19
2023-05-13T19:59:28.212Z,96524.41
2023-05-13T20:01:55.251Z,96512.34
2023-05-13T20:04:22.219Z,96495.41
2023-05-13T20:06:49.286Z,96512.66
2023-05-13T20:09:16.201Z,96475.66
2023-05-13T20:11:43.125Z,96495.63
2023-05-13T20:14:11.554Z,96508.38
2023-05-13T20:16:38.552Z,96497.53
2023-05-13T20:19:05.539Z,96515.84
2023-05-13T20:21:32.494Z,96484.31
2023-05-13T20:23:59.363Z,96477.66
2023-05-13T20:26:26.461Z,96500.91
2023-05-13T20:28:53.598Z,96459.06
2023-05-13T20:31:21.380Z,96485.75
2023-05-13T20:33:48.528Z,96463.56
2023-05-13T20:36:15.403Z,96497.50
2023-05-13T20:38:42.321Z,96476.63
2023-05-13T20:41:09.486Z,96473.22
2023-05-13T20:43:36.818Z,96463.28
2023-05-13T20:46:13.032Z,96501.72
2023-05-13T20:48:40.163Z,96477.06
2023-05-13T20:51:07.111Z,96489.63
2023-05-13T20:53:34.982Z,96459.72
2023-05-13T20:56:03.242Z,96501.88
2023-05-13T20:58:30.867Z,96484.31
2023-05-13T21:00:58.062Z,96464.47
2023-05-13T21:03:25.661Z,96433.31
2023-05-13T21:05:52.613Z,96455.19
2023-05-13T21:08:19.524Z,96476.31
2023-05-13T21:10:46.364Z,96495.19
2023-05-13T21:13:13.248Z,96470.84
2023-05-13T21:15:40.138Z,96477.84
2023-05-13T21:18:07.089Z,96458.16
2023-05-13T21:20:34.059Z,96481.56
2023-05-13T21:23:01.140Z,96477.09
2023-05-13T21:25:28.396Z,96471.34
2023-05-13T21:27:55.313Z,96465.94
2023-05-13T21:30:22.448Z,96496.31
2023-05-13T21:32:49.860Z,96474.75
2023-05-13T21:35:16.980Z,96481.91
2023-05-13T21:37:45.863Z,96443.28
2023-05-13T21:40:14.280Z,96462.66
2023-05-13T21:42:41.205Z,96459.56
2023-05-13T21:45:08.658Z,96446.84
2023-05-13T21:47:35.665Z,96444.50
2023-05-13T21:50:02.640Z,96447.91
2023-05-13T21:52:29.557Z,96475.53
2023-05-13T21:54:56.422Z,96459.72
2023-05-13T21:57:23.320Z,96432.59
2023-05-13T21:59:50.210Z,96471.66
2023-05-13T22:02:17.127Z,96448.84
2023-05-13T22:04:44.083Z,96436.00
2023-05-13T22:07:11.426Z,96461.25
2023-05-13T22:09:38.345Z,96475.22
2023-05-13T22:12:05.540Z,96427.78
2023-05-13T22:14:32.487Z,96465.13
2023-05-13T22:17:09.132Z,96449.19
2023-05-13T22:19:37.149Z,96479.91
2023-05-13T22:22:24.378Z,96453.84
2023-05-13T22:24:51.524Z,96463.59
2023-05-13T22:27:18.395Z,96453.53
2023-05-13T22:29:45.266Z,96428.28
2023-05-13T22:32:12.279Z,96460.34
2023-05-13T22:34:39.279Z,96458.47
2023-05-13T22:37:09.373Z,96455.41
2023-05-13T22:39:36.371Z,96432.94
2023-05-13T22:42:03.351Z,96432.78
2023-05-13T22:44:30.285Z,96452.31
2023-05-13T22:46:57.155Z,96449.94
2023-05-13T22:49:24.159Z,96420.78
2023-05-13T22:51:51.588Z,96444.22
2023-05-13T22:54:18.644Z,96422.97
2023-05-13T22:56:48.494Z,96411.16
2023-05-13T22:59:15.454Z,96417.06
2023-05-13T23:01:42.381Z,96393.03
2023-05-13T23:04:09.304Z,96434.13
2023-05-13T23:06:38.568Z,96420.97
2023-05-13T23:09:05.910Z,96407.78
2023-05-13T23:11:32.909Z,96398.81
2023-05-13T23:13:59.874Z,96423.31
2023-05-13T23:16:26.787Z,96393.22
2023-05-13T23:18:56.137Z,96356.81
2023-05-13T23:21:23.133Z,96403.16
2023-05-13T23:23:50.632Z,96411.38
2023-05-13T23:26:17.504Z,96399.75
2023-05-13T23:28:44.396Z,96382.06
2023-05-13T23:31:11.289Z,96395.09
2023-05-13T23:33:38.289Z,96372.31
2023-05-13T23:36:05.536Z,96394.16
2023-05-13T23:38:32.411Z,96358.81
2023-05-13T23:40:59.261Z,96395.09
2023-05-13T23:43:26.170Z,96375.25
2023-05-13T23:45:53.087Z,96389.63
2023-05-13T23:48:19.943Z,96402.50
2023-05-13T23:50:46.865Z,96393.22
2023-05-13T23:53:13.685Z,96372.44
2023-05-13T23:55:40.598Z,96388.25
2023-05-13T23:58:07.456Z,96383.91
